sensor_id;sensor_type;location;lat;lon;timestamp;P1;durP1;ratioP1;P2;durP2;ratioP2
8964;SDS011;4517;49.020;12.066;2023-03-21T00:00:53;19.40;;;16.53;;
8964;SDS011;4517;49.020;12.066;2023-03-21T00:03:20;21.17;;;17.07;;
8964;SDS011;4517;49.020;12.066;2023-03-21T00:05:45;18.40;;;16.60;;
8964;SDS011;4517;49.020;12.066;2023-03-21T00:08:15;19.47;;;17.57;;
8964;SDS011;4517;49.020;12.066;2023-03-21T00:10:42;22.40;;;17.47;;
8964;SDS011;4517;49.020;12.066;2023-03-21T00:13:08;20.53;;;17.90;;
8964;SDS011;4517;49.020;12.066;2023-03-21T00:15:37;21.37;;;18.50;;
8964;SDS011;4517;49.020;12.066;2023-03-21T00:18:17;21.83;;;16.87;;
8964;SDS011;4517;49.020;12.066;2023-03-21T00:20:54;16.27;;;14.67;;
8964;SDS011;4517;49.020;12.066;2023-03-21T00:23:27;16.97;;;15.47;;
8964;SDS011;4517;49.020;12.066;2023-03-21T00:25:54;16.17;;;14.67;;
8964;SDS011;4517;49.020;12.066;2023-03-21T00:28:20;23.07;;;15.20;;
8964;SDS011;4517;49.020;12.066;2023-03-21T00:30:46;18.93;;;16.80;;
8964;SDS011;4517;49.020;12.066;2023-03-21T00:33:12;19.80;;;16.27;;
8964;SDS011;4517;49.020;12.066;2023-03-21T00:35:38;21.50;;;17.40;;
8964;SDS011;4517;49.020;12.066;2023-03-21T00:38:09;18.23;;;16.07;;
8964;SDS011;4517;49.020;12.066;2023-03-21T00:40:34;17.07;;;15.40;;
8964;SDS011;4517;49.020;12.066;2023-03-21T00:43:00;17.17;;;15.57;;
8964;SDS011;4517;49.020;12.066;2023-03-21T00:45:26;15.90;;;14.60;;
8964;SDS011;4517;49.020;12.066;2023-03-21T00:47:52;16.13;;;14.60;;
8964;SDS011;4517;49.020;12.066;2023-03-21T00:50:19;16.50;;;14.90;;
8964;SDS011;4517;49.020;12.066;2023-03-21T00:52:45;16.37;;;15.00;;
8964;SDS011;4517;49.020;12.066;2023-03-21T00:55:14;16.07;;;14.80;;
8964;SDS011;4517;49.020;12.066;2023-03-21T00:57:41;22.23;;;15.43;;
8964;SDS011;4517;49.020;12.066;2023-03-21T01:00:08;16.03;;;14.63;;
8964;SDS011;4517;49.020;12.066;2023-03-21T01:02:36;17.13;;;15.60;;
8964;SDS011;4517;49.020;12.066;2023-03-21T01:05:24;16.17;;;14.70;;
8964;SDS011;4517;49.020;12.066;2023-03-21T01:08:11;19.73;;;17.43;;
8964;SDS011;4517;49.020;12.066;2023-03-21T01:10:39;21.90;;;18.20;;
8964;SDS011;4517;49.020;12.066;2023-03-21T01:13:05;21.30;;;18.77;;
8964;SDS011;4517;49.020;12.066;2023-03-21T01:15:31;17.20;;;15.50;;
8964;SDS011;4517;49.020;12.066;2023-03-21T01:17:57;17.70;;;15.90;;
8964;SDS011;4517;49.020;12.066;2023-03-21T01:20:23;17.03;;;15.40;;
8964;SDS011;4517;49.020;12.066;2023-03-21T01:22:48;16.20;;;14.80;;
8964;SDS011;4517;49.020;12.066;2023-03-21T01:25:14;15.33;;;14.07;;
8964;SDS011;4517;49.020;12.066;2023-03-21T01:27:39;18.03;;;16.13;;
8964;SDS011;4517;49.020;12.066;2023-03-21T01:30:05;17.93;;;15.67;;
8964;SDS011;4517;49.020;12.066;2023-03-21T01:32:31;21.80;;;18.60;;
8964;SDS011;4517;49.020;12.066;2023-03-21T01:34:57;17.90;;;16.20;;
8964;SDS011;4517;49.020;12.066;2023-03-21T01:37:22;18.40;;;16.00;;
8964;SDS011;4517;49.020;12.066;2023-03-21T01:39:50;17.27;;;15.77;;
8964;SDS011;4517;49.020;12.066;2023-03-21T01:42:16;16.07;;;14.57;;
8964;SDS011;4517;49.020;12.066;2023-03-21T01:44:58;16.40;;;15.00;;
8964;SDS011;4517;49.020;12.066;2023-03-21T01:47:27;15.83;;;14.33;;
8964;SDS011;4517;49.020;12.066;2023-03-21T01:49:54;15.60;;;13.63;;
8964;SDS011;4517;49.020;12.066;2023-03-21T01:52:26;15.57;;;14.20;;
8964;SDS011;4517;49.020;12.066;2023-03-21T01:54:57;15.87;;;14.57;;
8964;SDS011;4517;49.020;12.066;2023-03-21T01:57:26;15.70;;;14.40;;
8964;SDS011;4517;49.020;12.066;2023-03-21T01:59:57;16.80;;;15.30;;
8964;SDS011;4517;49.020;12.066;2023-03-21T02:02:32;14.80;;;13.60;;
8964;SDS011;4517;49.020;12.066;2023-03-21T02:05:01;16.53;;;14.97;;
8964;SDS011;4517;49.020;12.066;2023-03-21T02:07:29;15.80;;;14.20;;
8964;SDS011;4517;49.020;12.066;2023-03-21T02:09:59;14.57;;;13.47;;
8964;SDS011;4517;49.020;12.066;2023-03-21T02:12:28;16.33;;;14.70;;
8964;SDS011;4517;49.020;12.066;2023-03-21T02:14:55;16.90;;;15.43;;
8964;SDS011;4517;49.020;12.066;2023-03-21T02:17:31;15.90;;;14.67;;
8964;SDS011;4517;49.020;12.066;2023-03-21T02:20:26;15.37;;;13.97;;
8964;SDS011;4517;49.020;12.066;2023-03-21T02:28:55;16.43;;;15.20;;
8964;SDS011;4517;49.020;12.066;2023-03-21T02:31:40;15.63;;;14.03;;
8964;SDS011;4517;49.020;12.066;2023-03-21T02:39:55;14.73;;;13.50;;
8964;SDS011;4517;49.020;12.066;2023-03-21T02:45:04;16.07;;;14.37;;
8964;SDS011;4517;49.020;12.066;2023-03-21T02:47:54;15.60;;;14.40;;
8964;SDS011;4517;49.020;12.066;2023-03-21T02:50:35;16.20;;;14.90;;
8964;SDS011;4517;49.020;12.066;2023-03-21T02:53:07;16.00;;;14.60;;
8964;SDS011;4517;49.020;12.066;2023-03-21T02:55:35;16.33;;;14.83;;
8964;SDS011;4517;49.020;12.066;2023-03-21T02:58:03;15.67;;;14.33;;
8964;SDS011;4517;49.020;12.066;2023-03-21T03:00:33;15.77;;;14.30;;
8964;SDS011;4517;49.020;12.066;2023-03-21T03:02:59;17.30;;;15.90;;
8964;SDS011;4517;49.020;12.066;2023-03-21T03:05:29;16.77;;;15.37;;
8964;SDS011;4517;49.020;12.066;2023-03-21T03:13:49;15.60;;;14.10;;
8964;SDS011;4517;49.020;12.066;2023-03-21T03:19:40;15.77;;;14.53;;
8964;SDS011;4517;49.020;12.066;2023-03-21T03:22:21;16.90;;;15.30;;
8964;SDS011;4517;49.020;12.066;2023-03-21T03:24:56;15.33;;;14.00;;
8964;SDS011;4517;49.020;12.066;2023-03-21T03:27:26;15.73;;;14.33;;
8964;SDS011;4517;49.020;12.066;2023-03-21T03:29:55;16.07;;;14.73;;
8964;SDS011;4517;49.020;12.066;2023-03-21T03:32:57;16.40;;;14.87;;
8964;SDS011;4517;49.020;12.066;2023-03-21T03:35:18;15.67;;;14.20;;
8964;SDS011;4517;49.020;12.066;2023-03-21T03:37:46;15.37;;;13.97;;
8964;SDS011;4517;49.020;12.066;2023-03-21T03:40:17;16.70;;;15.20;;
8964;SDS011;4517;49.020;12.066;2023-03-21T03:43:07;16.10;;;14.70;;
8964;SDS011;4517;49.020;12.066;2023-03-21T03:45:46;15.40;;;14.20;;
8964;SDS011;4517;49.020;12.066;2023-03-21T03:48:18;16.73;;;15.00;;
8964;SDS011;4517;49.020;12.066;2023-03-21T03:50:51;15.70;;;14.23;;
8964;SDS011;4517;49.020;12.066;2023-03-21T03:55:57;15.33;;;14.03;;
8964;SDS011;4517;49.020;12.066;2023-03-21T03:58:24;15.37;;;13.93;;
8964;SDS011;4517;49.020;12.066;2023-03-21T04:00:51;15.30;;;14.07;;
8964;SDS011;4517;49.020;12.066;2023-03-21T04:03:18;15.40;;;14.00;;
8964;SDS011;4517;49.020;12.066;2023-03-21T04:05:44;16.17;;;14.67;;
8964;SDS011;4517;49.020;12.066;2023-03-21T04:08:10;15.70;;;14.30;;
8964;SDS011;4517;49.020;12.066;2023-03-21T04:10:37;15.50;;;14.17;;
8964;SDS011;4517;49.020;12.066;2023-03-21T04:13:04;15.60;;;14.00;;
8964;SDS011;4517;49.020;12.066;2023-03-21T04:15:29;15.87;;;14.57;;
8964;SDS011;4517;49.020;12.066;2023-03-21T04:17:55;16.20;;;14.60;;
8964;SDS011;4517;49.020;12.066;2023-03-21T04:20:21;16.33;;;14.93;;
8964;SDS011;4517;49.020;12.066;2023-03-21T04:22:47;14.43;;;13.23;;
8964;SDS011;4517;49.020;12.066;2023-03-21T04:25:12;15.67;;;14.47;;
8964;SDS011;4517;49.020;12.066;2023-03-21T04:27:38;15.07;;;13.60;;
8964;SDS011;4517;49.020;12.066;2023-03-21T04:30:04;16.83;;;15.43;;
8964;SDS011;4517;49.020;12.066;2023-03-21T04:32:31;15.90;;;14.50;;
8964;SDS011;4517;49.020;12.066;2023-03-21T04:34:58;15.83;;;14.53;;
8964;SDS011;4517;49.020;12.066;2023-03-21T04:37:24;15.00;;;13.70;;
8964;SDS011;4517;49.020;12.066;2023-03-21T04:39:50;16.27;;;14.80;;
8964;SDS011;4517;49.020;12.066;2023-03-21T04:42:16;16.27;;;14.70;;
8964;SDS011;4517;49.020;12.066;2023-03-21T04:44:43;16.03;;;14.60;;
8964;SDS011;4517;49.020;12.066;2023-03-21T04:47:09;16.70;;;15.00;;
8964;SDS011;4517;49.020;12.066;2023-03-21T04:49:35;16.70;;;15.07;;
8964;SDS011;4517;49.020;12.066;2023-03-21T04:52:00;16.13;;;14.63;;
8964;SDS011;4517;49.020;12.066;2023-03-21T04:54:26;15.30;;;14.00;;
8964;SDS011;4517;49.020;12.066;2023-03-21T04:56:52;15.43;;;14.23;;
8964;SDS011;4517;49.020;12.066;2023-03-21T04:59:18;16.20;;;14.90;;
8964;SDS011;4517;49.020;12.066;2023-03-21T05:01:45;16.53;;;15.03;;
8964;SDS011;4517;49.020;12.066;2023-03-21T05:04:12;15.07;;;13.97;;
8964;SDS011;4517;49.020;12.066;2023-03-21T05:06:38;16.80;;;15.30;;
8964;SDS011;4517;49.020;12.066;2023-03-21T05:09:06;15.77;;;14.63;;
8964;SDS011;4517;49.020;12.066;2023-03-21T05:11:33;16.63;;;15.20;;
8964;SDS011;4517;49.020;12.066;2023-03-21T05:14:02;17.23;;;15.20;;
8964;SDS011;4517;49.020;12.066;2023-03-21T05:16:28;15.83;;;14.33;;
8964;SDS011;4517;49.020;12.066;2023-03-21T05:18:58;17.57;;;15.73;;
8964;SDS011;4517;49.020;12.066;2023-03-21T05:21:27;18.30;;;16.60;;
8964;SDS011;4517;49.020;12.066;2023-03-21T05:23:54;19.70;;;17.70;;
8964;SDS011;4517;49.020;12.066;2023-03-21T05:26:21;19.40;;;17.50;;
8964;SDS011;4517;49.020;12.066;2023-03-21T05:28:47;19.10;;;17.40;;
8964;SDS011;4517;49.020;12.066;2023-03-21T05:31:14;19.77;;;17.67;;
8964;SDS011;4517;49.020;12.066;2023-03-21T05:33:41;19.17;;;17.47;;
8964;SDS011;4517;49.020;12.066;2023-03-21T05:36:07;19.70;;;17.90;;
8964;SDS011;4517;49.020;12.066;2023-03-21T05:38:33;23.57;;;19.83;;
8964;SDS011;4517;49.020;12.066;2023-03-21T05:40:58;19.90;;;18.00;;
8964;SDS011;4517;49.020;12.066;2023-03-21T05:43:24;19.00;;;17.13;;
8964;SDS011;4517;49.020;12.066;2023-03-21T05:45:50;17.90;;;16.20;;
8964;SDS011;4517;49.020;12.066;2023-03-21T05:48:15;17.20;;;15.60;;
8964;SDS011;4517;49.020;12.066;2023-03-21T05:50:41;17.97;;;16.50;;
8964;SDS011;4517;49.020;12.066;2023-03-21T05:53:06;16.70;;;15.40;;
8964;SDS011;4517;49.020;12.066;2023-03-21T05:55:32;17.40;;;16.00;;
8964;SDS011;4517;49.020;12.066;2023-03-21T05:57:57;18.83;;;17.10;;
8964;SDS011;4517;49.020;12.066;2023-03-21T06:00:23;17.80;;;16.30;;
8964;SDS011;4517;49.020;12.066;2023-03-21T06:02:49;19.27;;;17.40;;
8964;SDS011;4517;49.020;12.066;2023-03-21T06:05:14;19.70;;;17.70;;
8964;SDS011;4517;49.020;12.066;2023-03-21T06:07:40;19.70;;;17.70;;
8964;SDS011;4517;49.020;12.066;2023-03-21T06:10:06;18.77;;;17.07;;
8964;SDS011;4517;49.020;12.066;2023-03-21T06:12:32;21.17;;;18.80;;
8964;SDS011;4517;49.020;12.066;2023-03-21T06:14:57;18.37;;;16.80;;
8964;SDS011;4517;49.020;12.066;2023-03-21T06:17:24;17.80;;;16.30;;
8964;SDS011;4517;49.020;12.066;2023-03-21T06:19:50;18.83;;;16.40;;
8964;SDS011;4517;49.020;12.066;2023-03-21T06:22:15;20.70;;;16.13;;
8964;SDS011;4517;49.020;12.066;2023-03-21T06:24:41;17.50;;;15.97;;
8964;SDS011;4517;49.020;12.066;2023-03-21T06:27:06;18.47;;;16.73;;
8964;SDS011;4517;49.020;12.066;2023-03-21T06:29:32;19.03;;;17.23;;
8964;SDS011;4517;49.020;12.066;2023-03-21T06:31:58;21.43;;;19.60;;
8964;SDS011;4517;49.020;12.066;2023-03-21T06:34:23;17.13;;;15.73;;
8964;SDS011;4517;49.020;12.066;2023-03-21T06:36:49;17.23;;;15.83;;
8964;SDS011;4517;49.020;12.066;2023-03-21T06:39:16;17.30;;;15.83;;
8964;SDS011;4517;49.020;12.066;2023-03-21T06:41:42;18.00;;;16.20;;
8964;SDS011;4517;49.020;12.066;2023-03-21T06:44:07;18.17;;;16.47;;
8964;SDS011;4517;49.020;12.066;2023-03-21T06:46:33;17.17;;;15.63;;
8964;SDS011;4517;49.020;12.066;2023-03-21T06:49:00;17.53;;;16.07;;
8964;SDS011;4517;49.020;12.066;2023-03-21T06:51:25;15.97;;;14.70;;
8964;SDS011;4517;49.020;12.066;2023-03-21T06:53:51;17.10;;;15.60;;
8964;SDS011;4517;49.020;12.066;2023-03-21T06:56:16;17.57;;;16.17;;
8964;SDS011;4517;49.020;12.066;2023-03-21T06:58:42;16.00;;;14.80;;
8964;SDS011;4517;49.020;12.066;2023-03-21T07:01:08;17.07;;;15.53;;
8964;SDS011;4517;49.020;12.066;2023-03-21T07:03:33;17.27;;;15.60;;
8964;SDS011;4517;49.020;12.066;2023-03-21T07:06:03;15.27;;;13.87;;
8964;SDS011;4517;49.020;12.066;2023-03-21T07:08:31;15.80;;;14.60;;
8964;SDS011;4517;49.020;12.066;2023-03-21T07:10:56;17.77;;;16.10;;
8964;SDS011;4517;49.020;12.066;2023-03-21T07:13:22;16.23;;;14.93;;
8964;SDS011;4517;49.020;12.066;2023-03-21T07:15:48;15.97;;;14.50;;
8964;SDS011;4517;49.020;12.066;2023-03-21T07:18:13;15.93;;;14.63;;
8964;SDS011;4517;49.020;12.066;2023-03-21T07:20:39;16.87;;;15.67;;
8964;SDS011;4517;49.020;12.066;2023-03-21T07:23:05;17.70;;;16.00;;
8964;SDS011;4517;49.020;12.066;2023-03-21T07:25:31;16.87;;;15.50;;
8964;SDS011;4517;49.020;12.066;2023-03-21T07:27:57;17.83;;;16.33;;
8964;SDS011;4517;49.020;12.066;2023-03-21T07:30:22;16.37;;;15.07;;
8964;SDS011;4517;49.020;12.066;2023-03-21T07:32:48;16.40;;;15.03;;
8964;SDS011;4517;49.020;12.066;2023-03-21T07:35:15;17.17;;;15.67;;
8964;SDS011;4517;49.020;12.066;2023-03-21T07:37:41;17.53;;;16.13;;
8964;SDS011;4517;49.020;12.066;2023-03-21T07:40:08;17.03;;;15.57;;
8964;SDS011;4517;49.020;12.066;2023-03-21T07:42:34;16.97;;;15.67;;
8964;SDS011;4517;49.020;12.066;2023-03-21T07:45:03;16.50;;;15.10;;
8964;SDS011;4517;49.020;12.066;2023-03-21T07:47:30;17.03;;;15.33;;
8964;SDS011;4517;49.020;12.066;2023-03-21T07:49:56;17.70;;;16.20;;
8964;SDS011;4517;49.020;12.066;2023-03-21T07:52:21;17.10;;;15.67;;
8964;SDS011;4517;49.020;12.066;2023-03-21T07:54:47;17.83;;;16.00;;
8964;SDS011;4517;49.020;12.066;2023-03-21T07:57:13;17.97;;;16.23;;
8964;SDS011;4517;49.020;12.066;2023-03-21T07:59:38;17.40;;;15.87;;
8964;SDS011;4517;49.020;12.066;2023-03-21T08:02:04;22.50;;;16.43;;
8964;SDS011;4517;49.020;12.066;2023-03-21T08:04:31;19.37;;;16.70;;
8964;SDS011;4517;49.020;12.066;2023-03-21T08:06:57;17.90;;;16.30;;
8964;SDS011;4517;49.020;12.066;2023-03-21T08:09:24;17.67;;;16.17;;
8964;SDS011;4517;49.020;12.066;2023-03-21T08:11:50;16.87;;;15.20;;
8964;SDS011;4517;49.020;12.066;2023-03-21T08:14:16;16.87;;;14.97;;
8964;SDS011;4517;49.020;12.066;2023-03-21T08:16:41;17.13;;;15.70;;
8964;SDS011;4517;49.020;12.066;2023-03-21T08:19:08;16.50;;;15.20;;
8964;SDS011;4517;49.020;12.066;2023-03-21T08:21:34;17.90;;;14.77;;
8964;SDS011;4517;49.020;12.066;2023-03-21T08:24:01;15.13;;;13.80;;
8964;SDS011;4517;49.020;12.066;2023-03-21T08:26:27;16.97;;;14.37;;
8964;SDS011;4517;49.020;12.066;2023-03-21T08:28:53;16.40;;;14.90;;
8964;SDS011;4517;49.020;12.066;2023-03-21T08:31:18;15.27;;;14.07;;
8964;SDS011;4517;49.020;12.066;2023-03-21T08:33:45;17.30;;;15.83;;
8964;SDS011;4517;49.020;12.066;2023-03-21T08:36:11;16.40;;;15.10;;
8964;SDS011;4517;49.020;12.066;2023-03-21T08:38:37;16.77;;;15.30;;
8964;SDS011;4517;49.020;12.066;2023-03-21T08:41:03;16.37;;;14.97;;
8964;SDS011;4517;49.020;12.066;2023-03-21T08:43:29;21.80;;;16.10;;
8964;SDS011;4517;49.020;12.066;2023-03-21T08:45:54;19.33;;;17.83;;
8964;SDS011;4517;49.020;12.066;2023-03-21T08:48:20;17.03;;;15.60;;
8964;SDS011;4517;49.020;12.066;2023-03-21T08:50:46;15.97;;;14.70;;
8964;SDS011;4517;49.020;12.066;2023-03-21T08:53:12;15.90;;;14.70;;
8964;SDS011;4517;49.020;12.066;2023-03-21T08:55:37;16.03;;;14.80;;
8964;SDS011;4517;49.020;12.066;2023-03-21T08:58:03;15.87;;;14.80;;
8964;SDS011;4517;49.020;12.066;2023-03-21T09:00:30;15.40;;;14.20;;
8964;SDS011;4517;49.020;12.066;2023-03-21T09:02:56;16.73;;;15.53;;
8964;SDS011;4517;49.020;12.066;2023-03-21T09:05:23;16.00;;;14.80;;
8964;SDS011;4517;49.020;12.066;2023-03-21T09:07:50;16.63;;;15.20;;
8964;SDS011;4517;49.020;12.066;2023-03-21T09:10:18;15.83;;;14.53;;
8964;SDS011;4517;49.020;12.066;2023-03-21T09:12:46;15.17;;;13.97;;
8964;SDS011;4517;49.020;12.066;2023-03-21T09:15:12;15.40;;;14.10;;
8964;SDS011;4517;49.020;12.066;2023-03-21T09:17:38;14.30;;;13.30;;
8964;SDS011;4517;49.020;12.066;2023-03-21T09:20:09;15.87;;;14.67;;
8964;SDS011;4517;49.020;12.066;2023-03-21T09:22:42;14.73;;;13.90;;
8964;SDS011;4517;49.020;12.066;2023-03-21T09:25:13;14.60;;;13.53;;
8964;SDS011;4517;49.020;12.066;2023-03-21T09:27:40;14.27;;;13.17;;
8964;SDS011;4517;49.020;12.066;2023-03-21T09:30:07;14.47;;;13.57;;
8964;SDS011;4517;49.020;12.066;2023-03-21T09:32:34;14.43;;;13.33;;
8964;SDS011;4517;49.020;12.066;2023-03-21T09:35:01;14.13;;;13.23;;
8964;SDS011;4517;49.020;12.066;2023-03-21T09:37:29;13.73;;;12.80;;
8964;SDS011;4517;49.020;12.066;2023-03-21T09:39:56;15.13;;;14.17;;
8964;SDS011;4517;49.020;12.066;2023-03-21T09:42:46;14.97;;;14.07;;
8964;SDS011;4517;49.020;12.066;2023-03-21T09:45:21;15.80;;;14.53;;
8964;SDS011;4517;49.020;12.066;2023-03-21T09:47:59;14.90;;;13.50;;
8964;SDS011;4517;49.020;12.066;2023-03-21T09:50:29;15.20;;;14.10;;
8964;SDS011;4517;49.020;12.066;2023-03-21T09:52:59;13.70;;;12.80;;
8964;SDS011;4517;49.020;12.066;2023-03-21T09:55:30;13.50;;;12.37;;
8964;SDS011;4517;49.020;12.066;2023-03-21T10:00:32;14.63;;;13.50;;
8964;SDS011;4517;49.020;12.066;2023-03-21T10:03:05;14.77;;;13.77;;
8964;SDS011;4517;49.020;12.066;2023-03-21T10:05:43;15.10;;;13.73;;
8964;SDS011;4517;49.020;12.066;2023-03-21T10:10:47;15.40;;;13.83;;
8964;SDS011;4517;49.020;12.066;2023-03-21T10:13:19;15.27;;;14.13;;
8964;SDS011;4517;49.020;12.066;2023-03-21T10:15:55;14.33;;;13.43;;
8964;SDS011;4517;49.020;12.066;2023-03-21T10:18:26;15.23;;;13.70;;
8964;SDS011;4517;49.020;12.066;2023-03-21T10:20:54;15.13;;;13.27;;
8964;SDS011;4517;49.020;12.066;2023-03-21T10:23:21;15.13;;;14.23;;
8964;SDS011;4517;49.020;12.066;2023-03-21T10:25:56;14.03;;;13.00;;
8964;SDS011;4517;49.020;12.066;2023-03-21T10:28:27;15.50;;;14.47;;
8964;SDS011;4517;49.020;12.066;2023-03-21T10:30:56;15.50;;;14.23;;
8964;SDS011;4517;49.020;12.066;2023-03-21T10:33:34;15.10;;;14.13;;
8964;SDS011;4517;49.020;12.066;2023-03-21T10:36:04;15.90;;;14.50;;
8964;SDS011;4517;49.020;12.066;2023-03-21T10:38:33;15.17;;;14.10;;
8964;SDS011;4517;49.020;12.066;2023-03-21T10:40:59;15.10;;;13.67;;
8964;SDS011;4517;49.020;12.066;2023-03-21T10:45:52;15.13;;;14.10;;
8964;SDS011;4517;49.020;12.066;2023-03-21T10:48:18;17.93;;;16.37;;
8964;SDS011;4517;49.020;12.066;2023-03-21T10:50:48;16.00;;;14.80;;
8964;SDS011;4517;49.020;12.066;2023-03-21T10:53:19;15.90;;;14.80;;
8964;SDS011;4517;49.020;12.066;2023-03-21T10:55:47;15.27;;;14.30;;
8964;SDS011;4517;49.020;12.066;2023-03-21T10:58:19;14.43;;;13.60;;
8964;SDS011;4517;49.020;12.066;2023-03-21T11:00:57;14.87;;;13.83;;
8964;SDS011;4517;49.020;12.066;2023-03-21T11:03:27;14.60;;;13.60;;
8964;SDS011;4517;49.020;12.066;2023-03-21T11:08:55;17.80;;;16.50;;
8964;SDS011;4517;49.020;12.066;2023-03-21T11:11:27;16.40;;;15.40;;
8964;SDS011;4517;49.020;12.066;2023-03-21T11:13:58;14.57;;;13.57;;
8964;SDS011;4517;49.020;12.066;2023-03-21T11:16:33;14.27;;;13.50;;
8964;SDS011;4517;49.020;12.066;2023-03-21T11:19:17;15.27;;;14.27;;
8964;SDS011;4517;49.020;12.066;2023-03-21T11:21:50;13.60;;;12.60;;
8964;SDS011;4517;49.020;12.066;2023-03-21T11:24:16;16.10;;;14.63;;
8964;SDS011;4517;49.020;12.066;2023-03-21T11:26:44;14.50;;;13.40;;
8964;SDS011;4517;49.020;12.066;2023-03-21T11:32:09;14.20;;;13.20;;
8964;SDS011;4517;49.020;12.066;2023-03-21T11:34:46;15.80;;;14.67;;
8964;SDS011;4517;49.020;12.066;2023-03-21T11:40:12;16.17;;;14.73;;
8964;SDS011;4517;49.020;12.066;2023-03-21T11:42:49;14.83;;;13.43;;
8964;SDS011;4517;49.020;12.066;2023-03-21T11:45:21;15.00;;;13.93;;
8964;SDS011;4517;49.020;12.066;2023-03-21T11:47:49;15.90;;;14.80;;
8964;SDS011;4517;49.020;12.066;2023-03-21T11:50:19;16.30;;;14.90;;
8964;SDS011;4517;49.020;12.066;2023-03-21T11:52:58;16.67;;;15.37;;
8964;SDS011;4517;49.020;12.066;2023-03-21T11:58:22;16.20;;;15.00;;
8964;SDS011;4517;49.020;12.066;2023-03-21T12:09:02;20.40;;;19.10;;
8964;SDS011;4517;49.020;12.066;2023-03-21T12:14:32;15.73;;;14.43;;
8964;SDS011;4517;49.020;12.066;2023-03-21T12:17:21;15.63;;;14.40;;
8964;SDS011;4517;49.020;12.066;2023-03-21T12:22:44;16.67;;;15.00;;
8964;SDS011;4517;49.020;12.066;2023-03-21T12:25:31;16.33;;;14.90;;
8964;SDS011;4517;49.020;12.066;2023-03-21T12:44:28;17.80;;;16.13;;
8964;SDS011;4517;49.020;12.066;2023-03-21T12:47:00;16.13;;;15.03;;
8964;SDS011;4517;49.020;12.066;2023-03-21T12:52:12;15.70;;;14.30;;
8964;SDS011;4517;49.020;12.066;2023-03-21T12:59:54;16.30;;;15.20;;
8964;SDS011;4517;49.020;12.066;2023-03-21T13:05:30;15.80;;;14.60;;
8964;SDS011;4517;49.020;12.066;2023-03-21T13:08:05;16.43;;;15.23;;
8964;SDS011;4517;49.020;12.066;2023-03-21T13:10:31;16.20;;;15.10;;
8964;SDS011;4517;49.020;12.066;2023-03-21T13:13:03;17.67;;;16.27;;
8964;SDS011;4517;49.020;12.066;2023-03-21T13:24:19;16.47;;;15.23;;
8964;SDS011;4517;49.020;12.066;2023-03-21T13:29:31;16.53;;;15.33;;
8964;SDS011;4517;49.020;12.066;2023-03-21T13:35:21;17.10;;;15.70;;
8964;SDS011;4517;49.020;12.066;2023-03-21T13:40:48;15.60;;;14.50;;
8964;SDS011;4517;49.020;12.066;2023-03-21T13:46:10;16.47;;;15.27;;
8964;SDS011;4517;49.020;12.066;2023-03-21T13:48:41;15.60;;;14.40;;
8964;SDS011;4517;49.020;12.066;2023-03-21T13:51:18;16.83;;;15.63;;
8964;SDS011;4517;49.020;12.066;2023-03-21T13:57:05;15.50;;;14.57;;
8964;SDS011;4517;49.020;12.066;2023-03-21T14:04:45;15.10;;;13.90;;
8964;SDS011;4517;49.020;12.066;2023-03-21T14:07:17;16.07;;;14.70;;
8964;SDS011;4517;49.020;12.066;2023-03-21T14:10:06;15.10;;;14.03;;
8964;SDS011;4517;49.020;12.066;2023-03-21T14:12:41;15.93;;;14.70;;
8964;SDS011;4517;49.020;12.066;2023-03-21T14:15:18;16.03;;;14.93;;
8964;SDS011;4517;49.020;12.066;2023-03-21T14:20:34;16.20;;;15.10;;
8964;SDS011;4517;49.020;12.066;2023-03-21T14:23:06;16.23;;;15.23;;
8964;SDS011;4517;49.020;12.066;2023-03-21T14:25:33;15.07;;;14.17;;
8964;SDS011;4517;49.020;12.066;2023-03-21T14:28:02;16.80;;;15.60;;
8964;SDS011;4517;49.020;12.066;2023-03-21T14:30:36;16.50;;;15.30;;
8964;SDS011;4517;49.020;12.066;2023-03-21T14:33:06;17.20;;;15.73;;
8964;SDS011;4517;49.020;12.066;2023-03-21T14:35:51;15.97;;;14.73;;
8964;SDS011;4517;49.020;12.066;2023-03-21T14:38:20;15.87;;;14.97;;
8964;SDS011;4517;49.020;12.066;2023-03-21T14:40:48;15.57;;;14.57;;
8964;SDS011;4517;49.020;12.066;2023-03-21T14:43:17;15.17;;;14.20;;
8964;SDS011;4517;49.020;12.066;2023-03-21T14:45:45;15.77;;;14.73;;
8964;SDS011;4517;49.020;12.066;2023-03-21T14:48:13;18.70;;;17.20;;
8964;SDS011;4517;49.020;12.066;2023-03-21T14:53:32;16.20;;;15.00;;
8964;SDS011;4517;49.020;12.066;2023-03-21T14:58:33;16.67;;;15.57;;
8964;SDS011;4517;49.020;12.066;2023-03-21T15:01:03;16.73;;;15.43;;
8964;SDS011;4517;49.020;12.066;2023-03-21T15:03:30;17.50;;;16.20;;
8964;SDS011;4517;49.020;12.066;2023-03-21T15:05:56;17.57;;;16.17;;
8964;SDS011;4517;49.020;12.066;2023-03-21T15:08:24;17.40;;;15.83;;
8964;SDS011;4517;49.020;12.066;2023-03-21T15:11:02;16.80;;;15.53;;
8964;SDS011;4517;49.020;12.066;2023-03-21T15:16:05;17.37;;;15.97;;
8964;SDS011;4517;49.020;12.066;2023-03-21T15:18:33;16.87;;;15.57;;
8964;SDS011;4517;49.020;12.066;2023-03-21T15:21:05;16.70;;;15.33;;
8964;SDS011;4517;49.020;12.066;2023-03-21T15:23:41;16.50;;;15.27;;
8964;SDS011;4517;49.020;12.066;2023-03-21T15:26:18;15.87;;;14.73;;
8964;SDS011;4517;49.020;12.066;2023-03-21T15:28:47;15.27;;;14.37;;
8964;SDS011;4517;49.020;12.066;2023-03-21T15:31:27;16.03;;;14.67;;
8964;SDS011;4517;49.020;12.066;2023-03-21T15:33:55;15.73;;;14.63;;
8964;SDS011;4517;49.020;12.066;2023-03-21T15:36:27;16.87;;;15.70;;
8964;SDS011;4517;49.020;12.066;2023-03-21T15:38:59;15.60;;;14.50;;
8964;SDS011;4517;49.020;12.066;2023-03-21T15:41:30;15.87;;;14.57;;
8964;SDS011;4517;49.020;12.066;2023-03-21T15:46:42;14.50;;;13.43;;
8964;SDS011;4517;49.020;12.066;2023-03-21T15:51:44;14.90;;;13.90;;
8964;SDS011;4517;49.020;12.066;2023-03-21T15:54:21;15.40;;;14.30;;
8964;SDS011;4517;49.020;12.066;2023-03-21T15:56:56;15.47;;;14.30;;
8964;SDS011;4517;49.020;12.066;2023-03-21T15:59:29;14.90;;;13.90;;
8964;SDS011;4517;49.020;12.066;2023-03-21T16:01:58;14.83;;;13.93;;
8964;SDS011;4517;49.020;12.066;2023-03-21T16:04:25;15.47;;;14.10;;
8964;SDS011;4517;49.020;12.066;2023-03-21T16:07:01;15.50;;;14.17;;
8964;SDS011;4517;49.020;12.066;2023-03-21T16:09:38;14.03;;;13.10;;
8964;SDS011;4517;49.020;12.066;2023-03-21T16:12:09;15.23;;;13.80;;
8964;SDS011;4517;49.020;12.066;2023-03-21T16:14:36;14.37;;;13.47;;
8964;SDS011;4517;49.020;12.066;2023-03-21T16:17:11;14.50;;;13.40;;
8964;SDS011;4517;49.020;12.066;2023-03-21T16:20:17;13.57;;;12.47;;
8964;SDS011;4517;49.020;12.066;2023-03-21T16:22:46;14.40;;;13.47;;
8964;SDS011;4517;49.020;12.066;2023-03-21T16:25:12;13.27;;;12.47;;
8964;SDS011;4517;49.020;12.066;2023-03-21T16:27:38;14.03;;;12.93;;
8964;SDS011;4517;49.020;12.066;2023-03-21T16:30:04;15.63;;;14.13;;
8964;SDS011;4517;49.020;12.066;2023-03-21T16:32:32;14.17;;;12.97;;
8964;SDS011;4517;49.020;12.066;2023-03-21T16:34:58;14.70;;;13.60;;
8964;SDS011;4517;49.020;12.066;2023-03-21T16:37:24;15.20;;;13.83;;
8964;SDS011;4517;49.020;12.066;2023-03-21T16:39:49;15.10;;;14.10;;
8964;SDS011;4517;49.020;12.066;2023-03-21T16:42:15;14.73;;;13.60;;
8964;SDS011;4517;49.020;12.066;2023-03-21T16:44:41;13.80;;;12.80;;
8964;SDS011;4517;49.020;12.066;2023-03-21T16:47:17;14.33;;;13.40;;
8964;SDS011;4517;49.020;12.066;2023-03-21T16:49:44;13.60;;;12.70;;
8964;SDS011;4517;49.020;12.066;2023-03-21T16:52:11;14.67;;;13.67;;
8964;SDS011;4517;49.020;12.066;2023-03-21T16:54:38;15.33;;;14.13;;
8964;SDS011;4517;49.020;12.066;2023-03-21T16:57:05;16.97;;;13.60;;